Time,TemperatureF,DewpointF,PressureIn,WindDirection,WindDirectionDegrees,WindSpeedMPH,WindSpeedGustMPH,Humidity,HourlyPrecipIn,Conditions,Clouds,dailyrainin,SolarRadiationWatts/m^2,SoftwareType,DateUTC
2013-07-11 00:01:00,70.0,69.0,-100.00,SW,219,0.0,0.0,96,0.00,,,0.48,0.000000,,2013-07-11 04:01:00,
2013-07-11 00:32:00,70.0,69.0,-100.00,SW,234,0.0,6.0,96,0.00,,,0.48,0.000000,,2013-07-11 04:32:00,
2013-07-11 00:43:00,70.0,69.0,-100.00,SW,234,0.0,6.0,96,0.00,,,0.48,0.000000,,2013-07-11 04:43:00,
2013-07-11 00:53:00,70.0,69.0,-100.00,SW,234,0.0,6.0,96,0.00,,,0.48,0.000000,,2013-07-11 04:53:00,
2013-07-11 01:02:00,70.0,69.0,-100.00,SW,234,0.0,6.0,96,0.00,,,0.48,0.000000,,2013-07-11 05:02:00,
2013-07-11 01:32:00,70.0,68.0,-100.00,West,281,0.0,6.0,95,0.02,,,0.50,0.000000,,2013-07-11 05:32:00,
2013-07-11 01:43:00,70.0,68.0,-100.00,West,281,0.0,6.0,95,0.02,,,0.50,0.000000,,2013-07-11 05:43:00,
2013-07-11 01:52:00,70.0,68.0,-100.00,West,281,0.0,6.0,95,0.02,,,0.50,0.000000,,2013-07-11 05:52:00,
2013-07-11 02:01:00,70.0,68.0,-100.00,West,281,0.0,6.0,95,0.02,,,0.50,0.000000,,2013-07-11 06:01:00,
2013-07-11 02:32:00,70.0,69.0,-100.00,NNE,17,0.0,4.0,96,0.01,,,0.51,0.000000,,2013-07-11 06:32:00,
2013-07-11 02:43:00,70.0,69.0,-100.00,NNE,17,0.0,4.0,96,0.01,,,0.51,0.000000,,2013-07-11 06:43:00,
2013-07-11 02:53:00,70.0,69.0,-100.00,NNE,17,0.0,4.0,96,0.01,,,0.51,0.000000,,2013-07-11 06:53:00,
2013-07-11 03:02:00,70.0,69.0,-100.00,NNE,17,0.0,4.0,96,0.01,,,0.51,0.000000,,2013-07-11 07:02:00,
2013-07-11 03:32:00,69.0,68.0,-100.00,SSW,195,0.0,6.0,96,0.02,,,0.53,0.000000,,2013-07-11 07:32:00,
2013-07-11 03:45:00,69.0,68.0,-100.00,SSW,195,0.0,6.0,96,0.02,,,0.53,0.000000,,2013-07-11 07:45:00,
2013-07-11 03:53:00,69.0,68.0,-100.00,SSW,195,0.0,6.0,96,0.02,,,0.53,0.000000,,2013-07-11 07:53:00,
2013-07-11 04:02:00,69.0,68.0,-100.00,SSW,195,0.0,6.0,96,0.02,,,0.53,0.000000,,2013-07-11 08:02:00,
2013-07-11 04:34:00,69.0,68.0,-100.00,SSW,212,0.0,7.0,95,0.00,,,0.53,0.000000,,2013-07-11 08:34:00,
2013-07-11 04:43:00,69.0,68.0,-100.00,SSW,212,0.0,7.0,95,0.00,,,0.53,0.000000,,2013-07-11 08:43:00,
2013-07-11 04:53:00,69.0,68.0,-100.00,SSW,212,0.0,7.0,95,0.00,,,0.53,0.000000,,2013-07-11 08:53:00,
2013-07-11 05:03:00,69.0,68.0,-100.00,SSW,212,0.0,7.0,95,0.00,,,0.53,0.000000,,2013-07-11 09:03:00,
2013-07-11 05:43:00,69.0,68.0,-100.00,West,261,0.0,4.0,96,0.00,,,0.53,0.000000,,2013-07-11 09:43:00,
2013-07-11 05:53:00,69.0,68.0,-100.00,West,261,0.0,4.0,96,0.00,,,0.53,0.000000,,2013-07-11 09:53:00,
2013-07-11 06:01:00,69.0,68.0,-100.00,West,261,0.0,4.0,96,0.00,,,0.53,0.000000,,2013-07-11 10:01:00,
2013-07-11 06:33:00,69.0,68.0,-100.00,SSE,155,0.0,0.0,97,0.00,,,0.53,0.000000,,2013-07-11 10:33:00,
2013-07-11 06:43:00,69.0,68.0,-100.00,SSE,155,0.0,0.0,97,0.00,,,0.53,0.000000,,2013-07-11 10:43:00,
2013-07-11 06:52:00,69.0,68.0,-100.00,SSE,155,0.0,0.0,97,0.00,,,0.53,0.000000,,2013-07-11 10:52:00,
2013-07-11 07:02:00,69.0,68.0,-100.00,SSE,155,0.0,0.0,97,0.00,,,0.53,0.000000,,2013-07-11 11:02:00,
2013-07-11 07:33:00,69.0,68.0,-100.00,SSW,202,0.0,0.0,97,0.00,,,-99.99,5.000000,,2013-07-11 11:33:00,
2013-07-11 07:43:00,69.0,68.0,-100.00,SSW,202,0.0,0.0,97,0.00,,,-99.99,5.000000,,2013-07-11 11:43:00,
2013-07-11 07:53:00,69.0,68.0,-100.00,SSW,202,0.0,0.0,97,0.00,,,-99.99,5.000000,,2013-07-11 11:53:00,
2013-07-11 08:01:00,69.0,68.0,-100.00,SSW,202,0.0,0.0,97,0.00,,,-99.99,5.000000,,2013-07-11 12:01:00,
2013-07-11 08:33:00,70.0,69.0,-100.00,North,5,0.0,0.0,97,0.00,,,-99.99,41.000000,,2013-07-11 12:33:00,
2013-07-11 08:43:00,70.0,69.0,-100.00,North,5,0.0,0.0,97,0.00,,,-99.99,41.000000,,2013-07-11 12:43:00,
2013-07-11 08:57:00,70.0,69.0,-100.00,North,5,0.0,0.0,97,0.00,,,-99.99,41.000000,,2013-07-11 12:57:00,
2013-07-11 09:02:00,70.0,69.0,-100.00,North,5,0.0,0.0,97,0.00,,,-99.99,41.000000,,2013-07-11 13:02:00,
2013-07-11 09:47:00,71.0,69.0,-100.00,NNW,335,0.0,0.0,94,0.00,,,0.53,80.000000,,2013-07-11 13:47:00,
2013-07-11 09:55:00,71.0,69.0,-100.00,NNW,335,0.0,0.0,94,0.00,,,0.53,80.000000,,2013-07-11 13:55:00,
2013-07-11 10:05:00,71.0,69.0,-100.00,NNW,335,0.0,0.0,94,0.00,,,0.53,80.000000,,2013-07-11 14:05:00,
2013-07-11 10:06:00,73.0,70.0,-100.00,East,83,0.0,0.0,90,0.00,,,0.53,158.000000,,2013-07-11 14:06:00,
2013-07-11 10:47:00,73.0,70.0,-100.00,East,83,0.0,0.0,90,0.00,,,0.53,158.000000,,2013-07-11 14:47:00,
2013-07-11 10:55:00,73.0,70.0,-100.00,East,83,0.0,0.0,90,0.00,,,0.53,158.000000,,2013-07-11 14:55:00,
2013-07-11 11:06:00,74.0,70.0,-100.00,NW,325,2.0,5.0,87,0.00,,,0.53,187.000000,,2013-07-11 15:06:00,
2013-07-11 11:48:00,74.0,70.0,-100.00,NW,325,2.0,5.0,87,0.00,,,0.53,187.000000,,2013-07-11 15:48:00,
2013-07-11 11:59:00,74.0,70.0,-100.00,NW,325,2.0,5.0,87,0.00,,,0.53,187.000000,,2013-07-11 15:59:00,
2013-07-11 12:36:00,74.0,70.0,-100.00,NW,319,2.0,4.0,87,0.00,,,0.53,159.000000,,2013-07-11 16:36:00,
2013-07-11 12:49:00,74.0,70.0,-100.00,NW,319,2.0,4.0,87,0.00,,,0.53,159.000000,,2013-07-11 16:49:00,
2013-07-11 12:56:00,74.0,70.0,-100.00,NW,319,2.0,4.0,87,0.00,,,0.53,159.000000,,2013-07-11 16:56:00,
2013-07-11 13:03:00,74.0,70.0,-100.00,NW,319,2.0,4.0,87,0.00,,,0.53,159.000000,,2013-07-11 17:03:00,
2013-07-11 13:49:00,78.0,71.0,-100.00,SSW,207,4.0,7.0,79,0.00,,,0.53,393.000000,,2013-07-11 17:49:00,
2013-07-11 13:56:00,78.0,71.0,-100.00,SSW,207,4.0,7.0,79,0.00,,,0.53,393.000000,,2013-07-11 17:56:00,
2013-07-11 14:05:00,78.0,71.0,-100.00,SSW,207,4.0,7.0,79,0.00,,,0.53,393.000000,,2013-07-11 18:05:00,
2013-07-11 14:56:00,83.0,71.0,-100.00,SSW,211,2.0,9.0,67,0.00,,,0.53,732.000000,,2013-07-11 18:56:00,
2013-07-11 15:05:00,83.0,71.0,-100.00,SSW,211,2.0,9.0,67,0.00,,,0.53,732.000000,,2013-07-11 19:05:00,
2013-07-11 15:06:00,85.0,72.0,-100.00,SSW,201,3.0,8.0,66,0.00,,,0.53,693.000000,,2013-07-11 19:06:00,
2013-07-11 15:47:00,85.0,72.0,-100.00,SSW,201,3.0,8.0,66,0.00,,,0.53,693.000000,,2013-07-11 19:47:00,
2013-07-11 15:57:00,85.0,72.0,-100.00,SSW,201,3.0,8.0,66,0.00,,,0.53,693.000000,,2013-07-11 19:57:00,
2013-07-11 16:40:00,88.0,72.0,-100.00,South,189,1.0,8.0,60,0.00,,,0.53,828.000000,,2013-07-11 20:40:00,
2013-07-11 16:50:00,88.0,72.0,-100.00,South,189,1.0,8.0,60,0.00,,,0.53,828.000000,,2013-07-11 20:50:00,
2013-07-11 16:56:00,88.0,72.0,-100.00,South,189,1.0,8.0,60,0.00,,,0.53,828.000000,,2013-07-11 20:56:00,
2013-07-11 17:05:00,88.0,72.0,-100.00,South,189,1.0,8.0,60,0.00,,,0.53,828.000000,,2013-07-11 21:05:00,
2013-07-11 17:46:00,87.0,71.0,-100.00,WSW,250,3.0,8.0,60,0.00,,,0.53,582.000000,,2013-07-11 21:46:00,
2013-07-11 17:58:00,87.0,71.0,-100.00,WSW,250,3.0,8.0,60,0.00,,,0.53,582.000000,,2013-07-11 21:58:00,
2013-07-11 18:05:00,87.0,71.0,-100.00,WSW,250,3.0,8.0,60,0.00,,,0.53,582.000000,,2013-07-11 22:05:00,
2013-07-11 18:06:00,87.0,72.0,-100.00,SW,226,4.0,8.0,61,0.00,,,-99.99,478.000000,,2013-07-11 22:06:00,
2013-07-11 18:36:00,87.0,72.0,-100.00,SW,226,4.0,8.0,61,0.00,,,-99.99,478.000000,,2013-07-11 22:36:00,
2013-07-11 18:49:00,87.0,72.0,-100.00,SW,226,4.0,8.0,61,0.00,,,-99.99,478.000000,,2013-07-11 22:49:00,
2013-07-11 18:55:00,87.0,72.0,-100.00,SW,226,4.0,8.0,61,0.00,,,-99.99,478.000000,,2013-07-11 22:55:00,
2013-07-11 19:37:00,80.0,74.0,-100.00,North,7,4.0,10.0,83,0.04,,,0.24,111.000000,,2013-07-11 23:37:00,
2013-07-11 19:47:00,80.0,74.0,-100.00,North,7,4.0,10.0,83,0.04,,,0.24,111.000000,,2013-07-11 23:47:00,
2013-07-11 20:05:00,80.0,74.0,-100.00,North,7,4.0,10.0,83,0.04,,,0.24,111.000000,,2013-07-12 00:05:00,
2013-07-11 20:37:00,78.0,76.0,-100.00,East,79,0.0,5.0,93,0.00,,,0.13,67.000000,,2013-07-12 00:37:00,
2013-07-11 20:46:00,78.0,76.0,-100.00,East,79,0.0,5.0,93,0.00,,,0.13,67.000000,,2013-07-12 00:46:00,
2013-07-11 20:58:00,78.0,76.0,-100.00,East,79,0.0,5.0,93,0.00,,,0.13,67.000000,,2013-07-12 00:58:00,
2013-07-11 21:05:00,78.0,76.0,-100.00,East,79,0.0,5.0,93,0.00,,,0.13,67.000000,,2013-07-12 01:05:00,
2013-07-11 21:06:00,76.0,74.0,-100.00,East,100,0.0,5.0,93,0.00,,,0.09,27.000000,,2013-07-12 01:06:00,
2013-07-11 21:49:00,76.0,74.0,-100.00,East,100,0.0,5.0,93,0.00,,,0.09,27.000000,,2013-07-12 01:49:00,
2013-07-11 21:56:00,76.0,74.0,-100.00,East,100,0.0,5.0,93,0.00,,,0.09,27.000000,,2013-07-12 01:56:00,
2013-07-11 22:36:00,74.0,73.0,-100.00,South,174,0.0,2.0,96,0.00,,,0.09,0.000000,,2013-07-12 02:36:00,
2013-07-11 22:46:00,74.0,73.0,-100.00,South,174,0.0,2.0,96,0.00,,,0.09,0.000000,,2013-07-12 02:46:00,
2013-07-11 22:55:00,74.0,73.0,-100.00,South,174,0.0,2.0,96,0.00,,,0.09,0.000000,,2013-07-12 02:55:00,
2013-07-11 23:04:00,74.0,73.0,-100.00,South,174,0.0,2.0,96,0.00,,,0.09,0.000000,,2013-07-12 03:04:00,
2013-07-11 23:56:00,73.0,72.0,-100.00,ENE,75,0.0,0.0,97,0.00,,,0.09,0.000000,,2013-07-12 03:56:00,